createdAt,value
2019-05-13T00:00:23.491Z,3.45
2019-05-13T00:02:54.510Z,3.95
2019-05-13T00:05:25.072Z,3.37
2019-05-13T00:07:55.783Z,3.70
2019-05-13T00:10:26.149Z,3.40
2019-05-13T00:12:56.552Z,3.20
2019-05-13T00:15:26.928Z,3.20
2019-05-13T00:17:57.280Z,3.67
2019-05-13T00:20:27.801Z,3.60
2019-05-13T00:22:58.141Z,3.50
2019-05-13T00:25:28.543Z,3.50
2019-05-13T00:27:58.987Z,3.27
2019-05-13T00:30:29.750Z,3.80
2019-05-13T00:33:00.153Z,3.07
2019-05-13T00:35:37.095Z,3.93
2019-05-13T00:38:07.374Z,3.63
2019-05-13T00:40:37.951Z,3.67
2019-05-13T00:43:08.577Z,3.80
2019-05-13T00:45:39.009Z,3.58
2019-05-13T00:48:09.225Z,3.83
2019-05-13T00:50:39.503Z,3.50
2019-05-13T00:53:09.754Z,3.90
2019-05-13T00:55:40.252Z,3.57
2019-05-13T00:58:13.957Z,3.83
2019-05-13T01:00:44.751Z,3.87
2019-05-13T01:03:15.502Z,3.30
2019-05-13T01:05:45.894Z,4.10
2019-05-13T01:08:16.219Z,3.60
2019-05-13T01:10:46.515Z,3.47
2019-05-13T01:13:16.779Z,3.83
2019-05-13T01:15:47.111Z,3.50
2019-05-13T01:18:17.340Z,3.43
2019-05-13T01:20:47.734Z,3.83
2019-05-13T01:23:18.103Z,4.17
2019-05-13T01:25:48.495Z,3.93
2019-05-13T01:28:18.947Z,3.63
2019-05-13T01:30:49.243Z,3.60
2019-05-13T01:33:19.541Z,3.80
2019-05-13T01:35:49.984Z,3.50
2019-05-13T01:38:20.359Z,5.43
2019-05-13T01:40:50.634Z,3.43
2019-05-13T01:43:20.938Z,4.10
2019-05-13T01:45:53.540Z,3.90
2019-05-13T01:48:24.050Z,4.40
2019-05-13T01:50:54.738Z,4.30
2019-05-13T01:53:25.154Z,4.10
2019-05-13T01:55:55.590Z,3.70
2019-05-13T01:58:26.120Z,3.97
2019-05-13T02:00:56.522Z,4.00
2019-05-13T02:03:27.405Z,3.90
2019-05-13T02:05:57.836Z,3.97
2019-05-13T02:08:28.390Z,3.77
2019-05-13T02:10:59.025Z,3.30
2019-05-13T02:13:29.380Z,4.07
2019-05-13T02:15:59.957Z,4.23
2019-05-13T02:21:25.895Z,3.67
2019-05-13T02:23:56.263Z,4.67
2019-05-13T02:26:26.859Z,4.10
2019-05-13T02:28:57.147Z,4.60
2019-05-13T02:31:41.514Z,4.37
2019-05-13T02:34:02.525Z,3.70
2019-05-13T02:36:33.013Z,4.07
2019-05-13T02:39:05.693Z,5.33
2019-05-13T02:41:36.708Z,5.65
2019-05-13T02:44:07.656Z,6.13
2019-05-13T02:46:37.960Z,5.53
2019-05-13T02:49:08.610Z,4.90
2019-05-13T02:51:42.598Z,4.73
2019-05-13T02:54:12.386Z,5.58
2019-05-13T02:56:43.440Z,5.63
2019-05-13T02:59:13.883Z,5.37
2019-05-13T03:01:44.340Z,4.87
2019-05-13T03:04:14.834Z,5.13
2019-05-13T03:06:45.213Z,4.60
2019-05-13T03:09:15.711Z,4.60
2019-05-13T03:11:46.251Z,4.70
2019-05-13T03:14:16.833Z,4.43
2019-05-13T03:16:53.171Z,4.03
2019-05-13T03:19:23.572Z,4.80
2019-05-13T03:21:54.151Z,5.43
2019-05-13T03:24:24.345Z,4.53
2019-05-13T03:26:54.633Z,5.17
2019-05-13T03:29:24.981Z,5.07
2019-05-13T03:31:56.481Z,5.53
2019-05-13T03:34:27.723Z,4.63
2019-05-13T03:37:05.540Z,6.43
2019-05-13T03:39:33.390Z,5.43
2019-05-13T03:42:05.712Z,5.60
2019-05-13T03:44:37.647Z,5.03
2019-05-13T03:47:12.645Z,6.20
2019-05-13T03:49:44.686Z,5.17
2019-05-13T03:52:14.965Z,4.50
2019-05-13T03:54:45.617Z,5.40
2019-05-13T03:57:16.008Z,4.50
2019-05-13T03:59:46.305Z,4.60
2019-05-13T04:02:16.667Z,4.78
2019-05-13T04:04:46.914Z,4.53
2019-05-13T04:07:17.191Z,4.42
2019-05-13T04:09:47.516Z,4.33
2019-05-13T04:12:17.707Z,4.97
2019-05-13T04:14:47.989Z,4.40
2019-05-13T04:17:18.265Z,5.78
2019-05-13T04:19:48.519Z,5.20
2019-05-13T04:22:18.780Z,5.00
2019-05-13T04:24:52.788Z,4.22
2019-05-13T04:27:23.354Z,5.28
2019-05-13T04:29:54.410Z,6.67
2019-05-13T04:32:28.632Z,5.30
2019-05-13T04:34:57.246Z,5.73
2019-05-13T04:37:27.584Z,5.53
2019-05-13T04:39:57.972Z,5.35
2019-05-13T04:42:28.720Z,5.53
2019-05-13T04:44:58.887Z,5.58
2019-05-13T04:47:33.167Z,7.77
2019-05-13T04:50:03.437Z,6.43
2019-05-13T04:52:33.761Z,5.47
2019-05-13T04:55:04.204Z,5.40
2019-05-13T04:57:34.513Z,4.83
2019-05-13T05:00:05.498Z,5.77
2019-05-13T05:03:13.408Z,5.27
2019-05-13T05:06:36.383Z,4.90
2019-05-13T05:10:13.298Z,5.22
2019-05-13T05:13:16.004Z,5.53
2019-05-13T05:16:28.148Z,5.13
2019-05-13T05:19:34.832Z,5.47
2019-05-13T05:22:52.902Z,5.60
2019-05-13T05:26:02.822Z,5.50
2019-05-13T05:29:13.266Z,5.70
2019-05-13T05:32:43.502Z,5.43
2019-05-13T05:36:01.805Z,5.63
2019-05-13T05:39:05.405Z,4.70
2019-05-13T05:41:36.687Z,5.27
2019-05-13T05:44:08.650Z,5.30
2019-05-13T05:46:42.754Z,5.63
2019-05-13T05:49:13.073Z,5.50
2019-05-13T05:51:44.293Z,5.20
2019-05-13T05:54:15.050Z,5.62
2019-05-13T05:56:48.441Z,5.30
2019-05-13T05:59:21.733Z,5.97
2019-05-13T06:01:55.527Z,4.73
2019-05-13T06:04:28.317Z,4.78
2019-05-13T06:07:02.987Z,4.63
2019-05-13T06:09:32.206Z,4.97
2019-05-13T06:12:03.050Z,4.70
2019-05-13T06:14:33.376Z,5.20
2019-05-13T06:17:03.695Z,4.77
2019-05-13T06:19:34.210Z,5.50
2019-05-13T06:22:05.426Z,6.00
2019-05-13T06:24:43.669Z,4.40
2019-05-13T06:27:13.911Z,4.23
2019-05-13T06:29:44.115Z,4.27
2019-05-13T06:32:21.967Z,4.40
2019-05-13T06:34:46.654Z,4.10
2019-05-13T06:37:16.871Z,4.43
2019-05-13T06:39:47.936Z,3.70
2019-05-13T06:42:18.222Z,4.55
2019-05-13T06:44:48.524Z,3.90
2019-05-13T06:47:18.775Z,3.80
2019-05-13T06:49:51.464Z,3.17
2019-05-13T06:52:21.364Z,3.58
2019-05-13T06:54:52.179Z,3.73
2019-05-13T06:57:22.549Z,3.80
2019-05-13T06:59:52.782Z,3.43
2019-05-13T07:02:23.146Z,3.17
2019-05-13T07:04:53.349Z,3.30
2019-05-13T07:07:23.651Z,3.10
2019-05-13T07:09:53.756Z,2.83
2019-05-13T07:12:24.058Z,2.70
2019-05-13T07:14:54.290Z,2.80
2019-05-13T07:17:24.528Z,2.83
2019-05-13T07:19:54.842Z,2.73
2019-05-13T07:22:25.076Z,2.53
2019-05-13T07:24:55.379Z,2.60
2019-05-13T07:27:25.700Z,2.40
2019-05-13T07:29:55.918Z,2.87
2019-05-13T07:32:25.967Z,2.57
2019-05-13T07:34:56.612Z,2.50
2019-05-13T07:37:27.240Z,2.60
2019-05-13T07:39:57.685Z,3.20
2019-05-13T07:42:27.885Z,3.20
2019-05-13T07:44:58.049Z,2.30
2019-05-13T07:47:28.492Z,2.73
2019-05-13T07:49:58.670Z,2.20
2019-05-13T07:52:28.913Z,2.40
2019-05-13T07:55:01.521Z,2.37
2019-05-13T07:57:31.903Z,3.10
2019-05-13T08:00:02.366Z,2.80
2019-05-13T08:02:32.613Z,2.43
2019-05-13T08:05:02.913Z,2.50
2019-05-13T08:07:33.048Z,2.20
2019-05-13T08:10:03.798Z,1.73
2019-05-13T08:12:34.063Z,2.33
2019-05-13T08:15:04.489Z,2.03
2019-05-13T08:17:34.781Z,1.80
2019-05-13T08:20:05.266Z,2.30
2019-05-13T08:22:35.868Z,2.50
2019-05-13T08:25:07.160Z,1.95
2019-05-13T08:27:42.139Z,2.00
2019-05-13T08:30:13.415Z,2.50
2019-05-13T08:32:43.599Z,2.30
2019-05-13T08:35:15.180Z,2.40
2019-05-13T08:37:46.586Z,2.10
2019-05-13T08:40:20.131Z,1.92
2019-05-13T08:42:51.827Z,1.92
2019-05-13T08:45:22.446Z,2.10
2019-05-13T08:47:53.262Z,2.10
2019-05-13T08:50:23.506Z,1.75
2019-05-13T08:52:53.916Z,1.97
2019-05-13T08:55:24.143Z,1.80
2019-05-13T08:57:55.449Z,1.80
2019-05-13T09:00:52.839Z,2.00
2019-05-13T09:03:24.000Z,1.83
2019-05-13T09:05:55.349Z,1.90
2019-05-13T09:08:26.365Z,2.10
2019-05-13T09:10:57.277Z,1.90
2019-05-13T09:13:27.738Z,2.10
2019-05-13T09:15:58.028Z,1.90
2019-05-13T09:18:31.329Z,2.33
2019-05-13T09:21:04.821Z,2.00
2019-05-13T09:23:35.136Z,2.00
2019-05-13T09:26:06.709Z,1.63
2019-05-13T09:28:37.076Z,1.53
2019-05-13T09:31:07.458Z,1.52
2019-05-13T09:33:41.917Z,2.03
2019-05-13T09:36:13.675Z,1.97
2019-05-13T09:38:44.053Z,2.20
2019-05-13T09:41:14.277Z,2.10
2019-05-13T09:43:44.699Z,1.77
2019-05-13T09:46:14.950Z,2.30
2019-05-13T09:48:45.226Z,1.90
2019-05-13T09:51:15.903Z,1.72
2019-05-13T09:53:46.401Z,1.43
2019-05-13T09:56:16.696Z,2.20
2019-05-13T09:58:46.931Z,1.93
2019-05-13T10:01:17.351Z,2.12
2019-05-13T10:03:54.927Z,1.97
2019-05-13T10:06:23.397Z,1.83
2019-05-13T10:08:53.748Z,2.00
2019-05-13T10:11:24.226Z,1.80
2019-05-13T10:13:54.712Z,2.10
2019-05-13T10:16:24.998Z,1.70
2019-05-13T10:18:55.236Z,1.77
2019-05-13T10:21:25.609Z,1.80
2019-05-13T10:23:58.754Z,1.80
2019-05-13T10:26:28.225Z,1.50
2019-05-13T10:28:58.589Z,1.47
2019-05-13T10:31:31.254Z,1.90
2019-05-13T10:34:02.302Z,1.57
2019-05-13T10:36:33.075Z,1.50
2019-05-13T10:39:04.670Z,1.63
2019-05-13T10:41:35.026Z,1.67
2019-05-13T10:44:05.553Z,1.37
2019-05-13T10:46:35.826Z,1.70
2019-05-13T10:49:07.096Z,2.20
2019-05-13T10:51:37.393Z,1.43
2019-05-13T10:54:08.090Z,1.70
2019-05-13T10:56:38.396Z,1.57
2019-05-13T10:59:12.600Z,1.30
2019-05-13T11:01:43.168Z,1.47
2019-05-13T11:04:13.984Z,1.67
2019-05-13T11:06:44.313Z,1.20
2019-05-13T11:09:14.838Z,1.10
2019-05-13T11:11:45.207Z,1.20
2019-05-13T11:14:15.954Z,1.07
2019-05-13T11:16:46.266Z,1.30
2019-05-13T11:19:16.618Z,1.33
2019-05-13T11:21:50.646Z,1.07
2019-05-13T11:24:19.044Z,1.00
2019-05-13T11:26:49.399Z,1.40
2019-05-13T11:29:22.305Z,1.12
2019-05-13T11:31:52.641Z,1.17
2019-05-13T11:34:23.586Z,1.10
2019-05-13T11:36:53.833Z,1.17
2019-05-13T11:39:24.143Z,1.40
2019-05-13T11:41:54.405Z,1.10
2019-05-13T11:44:24.610Z,1.35
2019-05-13T11:47:14.808Z,1.00
2019-05-13T11:49:52.236Z,1.27
2019-05-13T11:52:22.872Z,1.00
2019-05-13T11:54:53.797Z,1.45
2019-05-13T11:57:24.306Z,1.20
2019-05-13T11:59:54.620Z,1.13
2019-05-13T12:02:24.951Z,1.00
2019-05-13T12:04:55.971Z,0.90
2019-05-13T12:07:26.133Z,0.90
2019-05-13T12:09:56.435Z,1.20
2019-05-13T12:12:30.876Z,1.23
2019-05-13T12:15:22.377Z,0.80
2019-05-13T12:17:33.993Z,1.03
2019-05-13T12:20:03.206Z,1.20
2019-05-13T12:22:33.544Z,1.33
2019-05-13T12:25:04.191Z,1.00
2019-05-13T12:27:34.510Z,1.00
2019-05-13T12:30:05.168Z,1.20
2019-05-13T12:32:35.266Z,1.07
2019-05-13T12:35:05.716Z,1.30
2019-05-13T12:37:35.995Z,1.20
2019-05-13T12:40:07.359Z,0.80
2019-05-13T12:42:43.259Z,0.90
2019-05-13T12:45:14.070Z,1.20
2019-05-13T12:47:43.348Z,1.20
2019-05-13T12:50:14.566Z,1.37
2019-05-13T12:52:44.937Z,0.90
2019-05-13T12:55:15.322Z,1.10
2019-05-13T12:57:45.606Z,0.90
2019-05-13T13:00:16.059Z,0.90
2019-05-13T13:02:51.656Z,0.90
2019-05-13T13:05:20.707Z,1.10
2019-05-13T13:08:13.803Z,0.80
2019-05-13T13:10:23.020Z,0.85
2019-05-13T13:12:54.852Z,0.97
2019-05-13T13:15:38.392Z,0.70
2019-05-13T13:17:57.317Z,0.80
2019-05-13T13:20:27.631Z,0.70
2019-05-13T13:22:58.074Z,0.80
2019-05-13T13:25:28.450Z,0.80
2019-05-13T13:28:09.926Z,0.80
2019-05-13T13:30:35.050Z,0.63
2019-05-13T13:33:03.071Z,0.60
2019-05-13T13:35:34.100Z,0.57
2019-05-13T13:38:09.964Z,0.70
2019-05-13T13:40:40.797Z,0.73
2019-05-13T13:43:13.091Z,0.60
2019-05-13T13:46:06.517Z,0.50
2019-05-13T13:48:15.297Z,1.30
2019-05-13T13:50:45.454Z,0.70
2019-05-13T13:53:15.785Z,0.80
2019-05-13T13:55:46.359Z,0.70
2019-05-13T13:58:16.647Z,1.12
2019-05-13T14:01:01.806Z,0.70
2019-05-13T14:03:19.798Z,0.80
2019-05-13T14:05:53.706Z,0.70
2019-05-13T14:08:22.396Z,0.70
2019-05-13T14:10:52.589Z,0.70
2019-05-13T14:13:28.192Z,0.60
2019-05-13T14:16:01.682Z,0.60
2019-05-13T14:18:31.880Z,0.50
2019-05-13T14:21:03.322Z,0.70
2019-05-13T14:23:37.726Z,0.70
2019-05-13T14:26:07.158Z,0.60
2019-05-13T14:28:37.417Z,0.50
2019-05-13T14:31:07.763Z,0.40
2019-05-13T14:33:37.926Z,0.70
2019-05-13T14:36:08.249Z,0.60
2019-05-13T14:38:38.614Z,0.87
2019-05-13T14:41:11.849Z,0.60
2019-05-13T14:43:40.995Z,0.75
2019-05-13T14:46:12.656Z,0.70
2019-05-13T14:48:43.437Z,0.70
2019-05-13T14:51:13.965Z,0.80
2019-05-13T14:53:44.122Z,0.75
2019-05-13T14:56:14.757Z,0.90
2019-05-13T14:58:45.035Z,0.50
2019-05-13T15:01:18.852Z,0.90
2019-05-13T15:03:47.404Z,0.90
2019-05-13T15:06:17.808Z,0.90
2019-05-13T15:08:48.034Z,0.80
2019-05-13T15:11:18.275Z,0.80
2019-05-13T15:13:48.560Z,0.78
2019-05-13T15:16:18.917Z,0.75
2019-05-13T15:18:52.446Z,0.90
2019-05-13T15:21:22.002Z,0.60
2019-05-13T15:23:52.300Z,0.68
2019-05-13T15:26:22.593Z,1.02
2019-05-13T15:28:52.923Z,0.70
2019-05-13T15:31:23.419Z,0.70
2019-05-13T15:33:53.749Z,0.80
2019-05-13T15:36:23.981Z,0.70
2019-05-13T15:38:54.246Z,0.70
2019-05-13T15:41:24.508Z,0.73
2019-05-13T15:43:54.954Z,0.80
2019-05-13T15:46:25.346Z,0.65
2019-05-13T15:51:28.168Z,0.82
2019-05-13T15:54:02.247Z,0.60
2019-05-13T15:56:31.525Z,0.70
2019-05-13T15:59:02.475Z,0.62
2019-05-13T16:01:33.023Z,0.70
2019-05-13T16:04:03.459Z,0.68
2019-05-13T16:06:33.674Z,0.80
2019-05-13T16:09:05.644Z,0.47
2019-05-13T16:11:35.966Z,0.70
2019-05-13T16:14:07.320Z,0.80
2019-05-13T16:16:37.847Z,0.60
2019-05-13T16:19:08.377Z,0.60
2019-05-13T16:21:41.373Z,0.72
2019-05-13T16:24:11.971Z,0.80
2019-05-13T16:26:43.693Z,0.90
2019-05-13T16:29:14.449Z,0.97
2019-05-13T16:32:03.256Z,0.70
2019-05-13T16:34:33.911Z,0.75
2019-05-13T16:37:04.403Z,0.87
2019-05-13T16:39:34.840Z,0.70
2019-05-13T16:42:05.326Z,0.65
2019-05-13T16:44:37.151Z,0.88
2019-05-13T16:47:07.457Z,1.10
2019-05-13T16:49:37.845Z,1.15
2019-05-13T16:52:08.195Z,1.27
2019-05-13T16:54:38.396Z,1.20
2019-05-13T16:57:08.666Z,1.00
2019-05-13T16:59:41.073Z,1.27
2019-05-13T17:02:12.611Z,0.98
2019-05-13T17:04:43.318Z,1.40
2019-05-13T17:07:13.589Z,1.20
2019-05-13T17:09:43.812Z,1.02
2019-05-13T17:12:15.865Z,1.00
2019-05-13T17:14:46.037Z,0.90
2019-05-13T17:17:16.333Z,1.50
2019-05-13T17:19:46.702Z,1.20
2019-05-13T17:22:16.928Z,1.20
2019-05-13T17:24:48.621Z,1.55
2019-05-13T17:27:21.268Z,1.25
2019-05-13T17:29:57.004Z,1.42
2019-05-13T17:32:28.100Z,1.20
2019-05-13T17:34:58.575Z,1.17
2019-05-13T17:37:31.197Z,1.30
2019-05-13T17:40:01.628Z,1.10
2019-05-13T17:42:32.152Z,1.27
2019-05-13T17:45:02.866Z,1.70
2019-05-13T17:47:34.378Z,1.50
2019-05-13T17:50:05.286Z,1.42
2019-05-13T17:52:36.189Z,1.60
2019-05-13T17:55:08.119Z,1.40
2019-05-13T17:57:41.224Z,1.40
2019-05-13T18:00:12.140Z,1.00
2019-05-13T18:02:42.725Z,1.40
2019-05-13T18:05:13.527Z,1.70
2019-05-13T18:07:44.156Z,1.40
2019-05-13T18:10:15.099Z,1.57
2019-05-13T18:12:45.629Z,1.50
2019-05-13T18:15:16.222Z,1.57
2019-05-13T18:17:47.699Z,1.50
2019-05-13T18:20:18.638Z,1.83
2019-05-13T18:25:16.192Z,1.40
2019-05-13T18:27:47.073Z,1.20
2019-05-13T18:30:17.739Z,1.30
2019-05-13T18:32:48.437Z,1.60
2019-05-13T18:35:22.031Z,1.30
2019-05-13T18:37:52.661Z,1.83
2019-05-13T18:40:23.492Z,2.00
2019-05-13T18:42:54.167Z,2.40
2019-05-13T18:45:24.746Z,2.67
2019-05-13T18:47:55.297Z,2.43
2019-05-13T18:50:25.952Z,2.60
2019-05-13T18:52:57.310Z,2.10
2019-05-13T18:55:27.898Z,2.17
2019-05-13T18:57:58.527Z,2.40
2019-05-13T19:00:29.355Z,1.83
2019-05-13T19:03:01.274Z,1.80
2019-05-13T19:05:32.002Z,2.10
2019-05-13T19:08:02.749Z,1.83
2019-05-13T19:10:33.423Z,1.80
2019-05-13T19:13:06.658Z,2.07
2019-05-13T19:15:37.378Z,2.10
2019-05-13T19:18:07.948Z,2.13
2019-05-13T19:20:38.556Z,1.90
2019-05-13T19:23:09.128Z,1.80
2019-05-13T19:25:42.062Z,2.03
2019-05-13T19:28:12.065Z,2.10
2019-05-13T19:30:42.718Z,2.30
2019-05-13T19:33:13.202Z,2.70
2019-05-13T19:35:43.717Z,3.33
2019-05-13T19:38:14.404Z,6.60
2019-05-13T19:40:44.947Z,5.57
2019-05-13T19:43:15.476Z,3.05
2019-05-13T19:45:46.204Z,3.73
2019-05-13T19:48:16.787Z,3.77
2019-05-13T19:50:47.365Z,3.60
2019-05-13T19:53:17.679Z,3.27
2019-05-13T19:55:47.960Z,3.53
2019-05-13T19:58:18.290Z,3.40
2019-05-13T20:00:48.572Z,3.67
2019-05-13T20:03:19.007Z,3.55
2019-05-13T20:05:51.304Z,3.50
2019-05-13T20:08:21.320Z,3.98
2019-05-13T20:10:51.683Z,3.80
2019-05-13T20:13:21.926Z,3.73
2019-05-13T20:15:52.095Z,2.97
2019-05-13T20:18:23.593Z,3.37
2019-05-13T20:20:54.237Z,3.90
2019-05-13T20:23:24.541Z,3.70
2019-05-13T20:25:54.778Z,3.20
2019-05-13T20:28:25.088Z,3.13
2019-05-13T20:30:55.279Z,4.30
2019-05-13T20:33:25.449Z,4.40
2019-05-13T20:35:55.766Z,4.10
2019-05-13T20:38:26.088Z,3.87
2019-05-13T20:40:56.348Z,3.30
2019-05-13T20:43:26.888Z,4.10
2019-05-13T20:45:57.212Z,3.57
2019-05-13T20:48:27.898Z,3.83
2019-05-13T20:50:58.118Z,3.33
2019-05-13T20:53:28.371Z,3.80
2019-05-13T20:55:58.640Z,3.40
2019-05-13T20:58:28.858Z,3.40
2019-05-13T21:00:59.144Z,3.23
2019-05-13T21:03:31.589Z,3.67
2019-05-13T21:06:02.066Z,3.60
2019-05-13T21:08:32.365Z,3.20
2019-05-13T21:11:02.543Z,3.37
2019-05-13T21:13:32.798Z,4.23
2019-05-13T21:16:03.231Z,4.65
2019-05-13T21:18:33.489Z,3.40
2019-05-13T21:21:03.717Z,3.43
2019-05-13T21:23:34.161Z,3.80
2019-05-13T21:26:04.498Z,3.77
2019-05-13T21:28:34.913Z,3.60
2019-05-13T21:31:05.232Z,3.70
2019-05-13T21:33:35.481Z,4.30
2019-05-13T21:36:07.165Z,3.67
2019-05-13T21:38:37.459Z,4.13
2019-05-13T21:41:07.721Z,5.00
2019-05-13T21:43:38.155Z,5.63
2019-05-13T21:46:08.490Z,4.87
2019-05-13T21:48:38.848Z,4.50
2019-05-13T21:51:13.195Z,4.37
2019-05-13T21:53:41.765Z,3.97
2019-05-13T21:56:12.268Z,3.87
2019-05-13T21:58:42.450Z,3.70
2019-05-13T22:01:13.890Z,3.47
2019-05-13T22:03:45.299Z,4.07
2019-05-13T22:06:15.602Z,3.40
2019-05-13T22:08:51.825Z,3.50
2019-05-13T22:11:22.326Z,4.07
2019-05-13T22:13:52.600Z,4.30
2019-05-13T22:16:22.807Z,4.33
2019-05-13T22:18:53.049Z,3.50
2019-05-13T22:21:23.311Z,3.87
2019-05-13T22:23:53.812Z,4.10
2019-05-13T22:26:24.168Z,3.70
2019-05-13T22:28:54.517Z,4.30
2019-05-13T22:31:24.931Z,3.80
2019-05-13T22:33:55.079Z,3.90
2019-05-13T22:36:25.397Z,3.90
2019-05-13T22:38:55.537Z,3.90
2019-05-13T22:41:25.925Z,4.07
2019-05-13T22:43:58.822Z,4.23
2019-05-13T22:46:28.027Z,4.27
2019-05-13T22:48:58.416Z,4.07
2019-05-13T22:51:28.798Z,3.87
2019-05-13T22:53:59.020Z,4.00
2019-05-13T22:56:31.791Z,4.00
2019-05-13T22:59:02.134Z,4.27
2019-05-13T23:01:32.774Z,3.73
2019-05-13T23:04:03.220Z,4.40
2019-05-13T23:06:33.607Z,4.17
2019-05-13T23:09:04.811Z,4.60
2019-05-13T23:11:35.239Z,4.33
2019-05-13T23:14:10.122Z,3.63
2019-05-13T23:16:39.159Z,3.70
2019-05-13T23:19:11.150Z,4.40
2019-05-13T23:21:41.900Z,4.13
2019-05-13T23:24:12.426Z,5.13
2019-05-13T23:26:42.931Z,3.90
2019-05-13T23:29:13.213Z,4.13
2019-05-13T23:31:43.584Z,4.57
2019-05-13T23:34:13.880Z,4.30
2019-05-13T23:36:44.365Z,5.00
2019-05-13T23:39:14.829Z,4.50
2019-05-13T23:41:45.239Z,4.93
2019-05-13T23:44:24.818Z,4.50
2019-05-13T23:46:47.698Z,5.60
2019-05-13T23:49:18.064Z,5.47
2019-05-13T23:51:48.180Z,4.43
2019-05-13T23:54:18.423Z,4.77
2019-05-13T23:56:48.758Z,5.30
2019-05-13T23:59:18.873Z,4.97
